createdAt,value
2022-12-26T00:00:28.237Z,57.85
2022-12-26T00:01:28.198Z,57.20
2022-12-26T00:02:28.217Z,57.52
2022-12-26T00:03:28.269Z,57.85
2022-12-26T00:04:52.377Z,57.85
2022-12-26T00:05:29.132Z,57.52
2022-12-26T00:06:28.124Z,57.36
2022-12-26T00:07:28.222Z,57.36
2022-12-26T00:08:29.121Z,57.20
2022-12-26T00:09:28.086Z,57.52
2022-12-26T00:10:28.119Z,57.85
2022-12-26T00:11:28.092Z,57.52
2022-12-26T00:12:28.132Z,57.85
2022-12-26T00:13:39.996Z,58.33
2022-12-26T00:14:30.112Z,57.52
2022-12-26T00:15:29.122Z,58.65
2022-12-26T00:16:28.135Z,58.01
2022-12-26T00:17:28.036Z,58.97
2022-12-26T00:18:28.089Z,58.33
2022-12-26T00:19:28.075Z,58.33
2022-12-26T00:20:28.052Z,58.81
2022-12-26T00:21:28.045Z,58.65
2022-12-26T00:22:28.030Z,58.17
2022-12-26T00:23:28.085Z,59.94
2022-12-26T00:24:28.033Z,58.33
2022-12-26T00:25:28.009Z,58.01
2022-12-26T00:26:28.008Z,57.69
2022-12-26T00:27:28.028Z,57.52
2022-12-26T00:28:28.023Z,58.01
2022-12-26T00:29:28.057Z,58.01
2022-12-26T00:30:27.995Z,57.04
2022-12-26T00:31:28.106Z,58.65
2022-12-26T00:32:27.994Z,59.14
2022-12-26T00:33:27.946Z,58.33
2022-12-26T00:34:28.091Z,58.17
2022-12-26T00:35:27.958Z,58.65
2022-12-26T00:36:27.959Z,58.17
2022-12-26T00:37:27.916Z,58.17
2022-12-26T00:38:27.906Z,58.01
2022-12-26T00:39:27.965Z,60.42
2022-12-26T00:40:28.026Z,59.14
2022-12-26T00:41:27.953Z,58.33
2022-12-26T00:42:27.921Z,57.85
2022-12-26T00:43:27.933Z,57.69
2022-12-26T00:44:27.942Z,57.85
2022-12-26T00:45:27.952Z,58.17
2022-12-26T00:46:28.022Z,58.17
2022-12-26T00:47:27.895Z,58.17
2022-12-26T00:48:27.892Z,57.85
2022-12-26T00:49:28.886Z,57.85
2022-12-26T00:50:34.399Z,57.52
2022-12-26T00:51:28.887Z,57.69
2022-12-26T00:52:27.894Z,59.30
2022-12-26T00:53:27.842Z,58.01
2022-12-26T00:54:27.859Z,58.17
2022-12-26T00:55:27.871Z,58.17
2022-12-26T00:56:27.862Z,57.69
2022-12-26T00:57:27.846Z,57.52
2022-12-26T00:58:27.878Z,57.85
2022-12-26T00:59:27.842Z,58.01
2022-12-26T01:00:27.823Z,58.33
2022-12-26T01:01:28.011Z,57.36
2022-12-26T01:02:28.016Z,57.52
2022-12-26T01:03:27.857Z,57.69
2022-12-26T01:04:27.830Z,57.85
2022-12-26T01:05:27.833Z,58.01
2022-12-26T01:06:27.792Z,58.65
2022-12-26T01:07:27.805Z,57.85
2022-12-26T01:08:27.790Z,58.33
2022-12-26T01:09:27.755Z,58.17
2022-12-26T01:10:27.725Z,57.52
2022-12-26T01:11:27.716Z,58.01
2022-12-26T01:12:27.773Z,57.85
2022-12-26T01:13:27.742Z,57.69
2022-12-26T01:14:27.749Z,57.52
2022-12-26T01:15:27.714Z,57.52
2022-12-26T01:16:27.803Z,57.69
2022-12-26T01:17:27.714Z,57.52
2022-12-26T01:18:27.715Z,58.65
2022-12-26T01:19:27.730Z,57.85
2022-12-26T01:20:27.717Z,57.52
2022-12-26T01:21:27.684Z,57.52
2022-12-26T01:22:27.708Z,57.20
2022-12-26T01:23:27.713Z,56.88
2022-12-26T01:24:27.675Z,57.04
2022-12-26T01:25:27.664Z,56.88
2022-12-26T01:26:27.695Z,58.17
2022-12-26T01:27:27.656Z,57.52
2022-12-26T01:28:27.687Z,57.69
2022-12-26T01:29:27.651Z,58.17
2022-12-26T01:30:27.655Z,57.04
2022-12-26T01:31:27.672Z,57.69
2022-12-26T01:32:27.647Z,57.85
2022-12-26T01:33:27.643Z,57.69
2022-12-26T01:34:27.611Z,57.69
2022-12-26T01:35:27.598Z,56.72
2022-12-26T01:36:27.583Z,59.46
2022-12-26T01:37:27.608Z,57.52
2022-12-26T01:38:27.625Z,57.85
2022-12-26T01:39:27.590Z,57.04
2022-12-26T01:40:27.598Z,57.04
2022-12-26T01:41:27.564Z,57.36
2022-12-26T01:42:27.564Z,56.40
2022-12-26T01:43:27.550Z,57.52
2022-12-26T01:44:27.578Z,57.52
2022-12-26T01:45:27.801Z,57.36
2022-12-26T01:46:27.628Z,58.17
2022-12-26T01:47:27.557Z,57.52
2022-12-26T01:48:27.522Z,57.85
2022-12-26T01:49:27.509Z,57.85
2022-12-26T01:50:27.545Z,57.36
2022-12-26T01:51:27.640Z,57.85
2022-12-26T01:52:27.511Z,57.20
2022-12-26T01:53:27.526Z,57.20
2022-12-26T01:54:38.526Z,57.36
2022-12-26T01:55:28.500Z,57.20
2022-12-26T01:56:27.538Z,57.52
2022-12-26T01:57:27.481Z,58.01
2022-12-26T01:58:27.473Z,57.36
2022-12-26T01:59:27.458Z,57.36
2022-12-26T02:00:27.446Z,57.36
2022-12-26T02:01:27.578Z,57.36
2022-12-26T02:02:27.776Z,57.85
2022-12-26T02:03:27.457Z,57.04
2022-12-26T02:04:27.415Z,57.20
2022-12-26T02:05:27.450Z,57.52
2022-12-26T02:06:27.434Z,57.52
2022-12-26T02:07:27.451Z,57.52
2022-12-26T02:08:27.419Z,57.36
2022-12-26T02:09:27.410Z,57.36
2022-12-26T02:10:27.403Z,57.20
2022-12-26T02:11:27.418Z,57.36
2022-12-26T02:12:36.539Z,57.04
2022-12-26T02:13:28.412Z,56.88
2022-12-26T02:14:27.362Z,57.04
2022-12-26T02:15:27.415Z,57.36
2022-12-26T02:16:27.417Z,57.04
2022-12-26T02:17:27.367Z,57.69
2022-12-26T02:18:27.423Z,57.52
2022-12-26T02:19:27.347Z,57.04
2022-12-26T02:20:27.344Z,58.81
2022-12-26T02:21:27.339Z,57.52
2022-12-26T02:22:27.329Z,57.36
2022-12-26T02:23:27.328Z,57.04
2022-12-26T02:24:27.302Z,57.36
2022-12-26T02:25:27.295Z,57.69
2022-12-26T02:26:27.308Z,57.36
2022-12-26T02:27:27.267Z,57.04
2022-12-26T02:28:27.274Z,57.85
2022-12-26T02:29:27.278Z,56.88
2022-12-26T02:30:27.299Z,58.65
2022-12-26T02:31:27.380Z,58.17
2022-12-26T02:32:27.269Z,57.04
2022-12-26T02:33:27.269Z,57.04
2022-12-26T02:34:27.237Z,56.88
2022-12-26T02:35:27.377Z,56.88
2022-12-26T02:36:27.228Z,56.88
2022-12-26T02:37:27.229Z,57.20
2022-12-26T02:38:27.211Z,57.52
2022-12-26T02:39:43.896Z,57.85
2022-12-26T02:40:27.235Z,57.52
2022-12-26T02:41:27.213Z,57.04
2022-12-26T02:42:27.193Z,57.20
2022-12-26T02:43:27.183Z,57.36
2022-12-26T02:44:27.202Z,58.17
2022-12-26T02:45:27.167Z,57.36
2022-12-26T02:46:27.351Z,57.04
2022-12-26T02:47:27.147Z,57.04
2022-12-26T02:48:27.183Z,57.20
2022-12-26T02:49:27.143Z,58.17
2022-12-26T02:50:27.124Z,59.46
2022-12-26T02:51:27.174Z,58.17
2022-12-26T02:52:27.143Z,57.52
2022-12-26T02:53:27.108Z,57.36
2022-12-26T02:54:27.124Z,57.20
2022-12-26T02:55:27.131Z,57.04
2022-12-26T02:56:27.151Z,57.36
2022-12-26T02:57:27.104Z,57.04
2022-12-26T02:58:27.108Z,57.69
2022-12-26T02:59:55.894Z,58.65
2022-12-26T03:00:27.125Z,59.94
2022-12-26T03:01:27.190Z,57.69
2022-12-26T03:02:27.431Z,57.04
2022-12-26T03:03:27.138Z,57.36
2022-12-26T03:04:27.048Z,57.20
2022-12-26T03:05:27.075Z,57.36
2022-12-26T03:06:27.072Z,57.36
2022-12-26T03:07:27.063Z,57.52
2022-12-26T03:08:27.109Z,57.20
2022-12-26T03:09:27.069Z,57.36
2022-12-26T03:10:27.025Z,57.04
2022-12-26T03:11:27.009Z,56.88
2022-12-26T03:12:27.047Z,57.36
2022-12-26T03:13:27.038Z,57.52
2022-12-26T03:14:27.052Z,57.52
2022-12-26T03:15:27.021Z,57.52
2022-12-26T03:16:27.065Z,57.36
2022-12-26T03:17:26.974Z,56.88
2022-12-26T03:18:58.482Z,57.36
2022-12-26T03:19:26.991Z,57.36
2022-12-26T03:20:26.973Z,57.52
2022-12-26T03:21:26.940Z,57.52
2022-12-26T03:22:26.945Z,57.52
2022-12-26T03:23:26.975Z,57.52
2022-12-26T03:24:26.972Z,57.04
2022-12-26T03:25:26.939Z,57.20
2022-12-26T03:26:26.957Z,57.52
2022-12-26T03:27:26.916Z,57.20
2022-12-26T03:28:26.958Z,57.36
2022-12-26T03:29:26.944Z,57.52
2022-12-26T03:30:26.962Z,56.88
2022-12-26T03:31:26.904Z,57.69
2022-12-26T03:32:26.903Z,57.04
2022-12-26T03:33:26.847Z,57.36
2022-12-26T03:34:26.887Z,57.52
2022-12-26T03:35:26.887Z,58.33
2022-12-26T03:36:26.877Z,58.01
2022-12-26T03:37:47.870Z,57.69
2022-12-26T03:38:27.884Z,57.85
2022-12-26T03:39:26.849Z,57.36
2022-12-26T03:40:26.818Z,57.36
2022-12-26T03:41:26.889Z,57.85
2022-12-26T03:42:26.828Z,57.36
2022-12-26T03:43:26.805Z,57.52
2022-12-26T03:44:26.824Z,58.17
2022-12-26T03:45:26.819Z,57.52
2022-12-26T03:46:26.870Z,57.20
2022-12-26T03:47:26.848Z,57.04
2022-12-26T03:48:26.809Z,57.04
2022-12-26T03:49:26.827Z,57.04
2022-12-26T03:50:26.826Z,57.85
2022-12-26T03:51:26.757Z,57.04
2022-12-26T03:52:26.819Z,56.56
2022-12-26T03:53:26.789Z,57.20
2022-12-26T03:54:26.792Z,57.36
2022-12-26T03:55:26.788Z,57.69
2022-12-26T03:56:26.754Z,57.04
2022-12-26T03:57:26.845Z,57.04
2022-12-26T03:58:26.757Z,58.01
2022-12-26T03:59:26.799Z,57.36
2022-12-26T04:00:26.757Z,57.04
2022-12-26T04:01:26.911Z,56.88
2022-12-26T04:02:26.800Z,57.52
2022-12-26T04:03:26.780Z,57.20
2022-12-26T04:04:26.708Z,57.36
2022-12-26T04:05:26.695Z,57.52
2022-12-26T04:06:26.694Z,57.36
2022-12-26T04:07:26.710Z,57.69
2022-12-26T04:08:26.762Z,57.52
2022-12-26T04:09:26.655Z,57.04
2022-12-26T04:10:26.692Z,57.04
2022-12-26T04:11:26.628Z,57.20
2022-12-26T04:12:26.662Z,57.52
2022-12-26T04:13:26.627Z,57.20
2022-12-26T04:14:26.669Z,57.52
2022-12-26T04:15:27.692Z,57.52
2022-12-26T04:16:26.618Z,57.69
2022-12-26T04:17:26.630Z,58.01
2022-12-26T04:18:26.648Z,58.33
2022-12-26T04:19:26.740Z,57.04
2022-12-26T04:20:26.636Z,57.36
2022-12-26T04:21:26.589Z,57.85
2022-12-26T04:22:26.621Z,57.36
2022-12-26T04:23:26.625Z,57.52
2022-12-26T04:24:26.604Z,57.85
2022-12-26T04:25:50.300Z,58.17
2022-12-26T04:26:27.577Z,57.52
2022-12-26T04:27:26.574Z,57.69
2022-12-26T04:28:26.569Z,57.52
2022-12-26T04:29:26.516Z,57.52
2022-12-26T04:30:26.580Z,57.04
2022-12-26T04:31:26.628Z,59.14
2022-12-26T04:32:26.524Z,57.85
2022-12-26T04:33:26.529Z,58.17
2022-12-26T04:34:26.507Z,58.17
2022-12-26T04:35:26.530Z,57.36
2022-12-26T04:36:26.560Z,58.65
2022-12-26T04:37:26.550Z,58.17
2022-12-26T04:38:26.491Z,63.00
2022-12-26T04:39:26.468Z,58.33
2022-12-26T04:40:26.494Z,57.52
2022-12-26T04:41:26.497Z,57.04
2022-12-26T04:42:26.489Z,57.52
2022-12-26T04:43:46.815Z,57.52
2022-12-26T04:44:27.454Z,57.52
2022-12-26T04:45:26.490Z,57.20
2022-12-26T04:46:26.508Z,57.52
2022-12-26T04:47:26.483Z,59.30
2022-12-26T04:48:26.445Z,58.01
2022-12-26T04:49:26.425Z,58.17
2022-12-26T04:50:26.425Z,57.52
2022-12-26T04:51:26.410Z,57.69
2022-12-26T04:52:26.471Z,58.01
2022-12-26T04:53:26.403Z,57.69
2022-12-26T04:54:26.405Z,57.52
2022-12-26T04:55:26.375Z,57.52
2022-12-26T04:56:26.422Z,57.52
2022-12-26T04:57:26.382Z,57.85
2022-12-26T04:58:26.400Z,57.85
2022-12-26T04:59:26.393Z,58.01
2022-12-26T05:00:26.370Z,57.85
2022-12-26T05:01:26.497Z,58.17
2022-12-26T05:02:26.395Z,57.69
2022-12-26T05:03:26.491Z,57.52
2022-12-26T05:04:26.374Z,57.36
2022-12-26T05:05:26.336Z,57.36
2022-12-26T05:06:26.342Z,57.52
2022-12-26T05:07:26.307Z,57.04
2022-12-26T05:08:26.322Z,57.85
2022-12-26T05:09:26.350Z,60.26
2022-12-26T05:10:26.339Z,57.52
2022-12-26T05:11:26.340Z,58.17
2022-12-26T05:12:26.309Z,57.52
2022-12-26T05:13:26.275Z,57.20
2022-12-26T05:14:26.273Z,57.85
2022-12-26T05:15:26.331Z,57.52
2022-12-26T05:16:26.368Z,57.52
2022-12-26T05:17:26.287Z,58.01
2022-12-26T05:18:26.241Z,56.88
2022-12-26T05:19:27.294Z,56.72
2022-12-26T05:20:26.300Z,57.04
2022-12-26T05:21:26.235Z,59.14
2022-12-26T05:22:26.271Z,57.36
2022-12-26T05:23:26.223Z,57.69
2022-12-26T05:24:26.238Z,57.20
2022-12-26T05:25:26.246Z,57.69
2022-12-26T05:26:26.240Z,57.36
2022-12-26T05:27:26.229Z,57.69
2022-12-26T05:29:00.504Z,58.01
2022-12-26T05:29:26.236Z,58.01
2022-12-26T05:30:26.254Z,57.85
2022-12-26T05:31:31.128Z,57.85
2022-12-26T05:32:28.207Z,58.65
2022-12-26T05:33:26.191Z,59.62
2022-12-26T05:34:26.128Z,58.65
2022-12-26T05:35:27.199Z,58.65
2022-12-26T05:36:26.199Z,58.17
2022-12-26T05:37:26.178Z,57.20
2022-12-26T05:38:26.182Z,57.69
2022-12-26T05:39:26.154Z,58.49
2022-12-26T05:40:26.193Z,58.33
2022-12-26T05:41:26.162Z,57.85
2022-12-26T05:42:26.097Z,58.01
2022-12-26T05:43:26.104Z,57.52
2022-12-26T05:44:26.147Z,57.52
2022-12-26T05:45:26.103Z,57.04
2022-12-26T05:46:26.212Z,57.36
2022-12-26T05:47:26.120Z,57.52
2022-12-26T05:48:27.122Z,58.33
2022-12-26T05:49:26.082Z,58.49
2022-12-26T05:50:26.060Z,57.69
2022-12-26T05:51:26.111Z,57.52
2022-12-26T05:52:26.105Z,57.85
2022-12-26T05:53:26.058Z,57.36
2022-12-26T05:54:26.080Z,57.36
2022-12-26T05:55:26.045Z,57.52
2022-12-26T05:56:26.018Z,57.52
2022-12-26T05:57:26.114Z,58.49
2022-12-26T05:58:26.063Z,57.36
2022-12-26T05:59:26.047Z,57.36
2022-12-26T06:00:26.040Z,57.36
2022-12-26T06:01:26.088Z,57.36
2022-12-26T06:02:26.057Z,57.36
2022-12-26T06:03:26.268Z,58.17
2022-12-26T06:04:26.004Z,57.20
2022-12-26T06:05:25.966Z,57.04
2022-12-26T06:06:26.046Z,57.52
2022-12-26T06:07:25.965Z,57.52
2022-12-26T06:08:26.043Z,57.52
2022-12-26T06:09:25.983Z,57.20
2022-12-26T06:10:25.958Z,58.01
2022-12-26T06:11:25.991Z,57.04
2022-12-26T06:12:25.993Z,57.36
2022-12-26T06:13:26.006Z,57.04
2022-12-26T06:14:25.956Z,57.52
2022-12-26T06:15:25.941Z,56.88
2022-12-26T06:16:25.991Z,57.52
2022-12-26T06:17:25.938Z,57.52
2022-12-26T06:18:25.950Z,57.36
2022-12-26T06:19:26.077Z,57.52
2022-12-26T06:20:25.927Z,57.36
2022-12-26T06:21:25.903Z,57.85
2022-12-26T06:22:25.861Z,57.36
2022-12-26T06:23:25.883Z,57.20
2022-12-26T06:24:25.893Z,60.26
2022-12-26T06:25:25.905Z,57.20
2022-12-26T06:26:25.867Z,57.52
2022-12-26T06:27:25.911Z,58.33
2022-12-26T06:28:25.882Z,58.65
2022-12-26T06:29:25.858Z,57.52
2022-12-26T06:30:26.898Z,57.69
2022-12-26T06:31:25.872Z,58.01
2022-12-26T06:32:25.815Z,57.20
2022-12-26T06:33:25.820Z,56.88
2022-12-26T06:34:25.792Z,57.52
2022-12-26T06:35:25.823Z,58.17
2022-12-26T06:36:25.814Z,57.52
2022-12-26T06:37:25.810Z,57.52
2022-12-26T06:38:25.793Z,57.52
2022-12-26T06:39:25.786Z,58.33
2022-12-26T06:40:25.778Z,59.46
2022-12-26T06:41:25.794Z,58.81
2022-12-26T06:42:25.799Z,57.85
2022-12-26T06:43:25.773Z,57.04
2022-12-26T06:44:25.749Z,57.69
2022-12-26T06:45:25.762Z,58.17
2022-12-26T06:46:25.801Z,59.46
2022-12-26T06:47:25.727Z,58.17
2022-12-26T06:48:25.747Z,57.04
2022-12-26T06:49:32.147Z,57.52
2022-12-26T06:50:27.770Z,57.85
2022-12-26T06:51:25.700Z,57.20
2022-12-26T06:52:25.720Z,56.40
2022-12-26T06:53:25.728Z,56.72
2022-12-26T06:54:26.700Z,56.07
2022-12-26T06:55:25.697Z,56.56
2022-12-26T06:56:25.713Z,57.69
2022-12-26T06:57:25.682Z,58.33
2022-12-26T06:58:25.659Z,57.36
2022-12-26T06:59:25.644Z,57.69
2022-12-26T07:00:25.663Z,58.49
2022-12-26T07:01:25.727Z,58.01
2022-12-26T07:02:25.784Z,58.49
2022-12-26T07:03:25.625Z,57.36
2022-12-26T07:04:25.666Z,58.49
2022-12-26T07:05:25.675Z,58.81
2022-12-26T07:06:25.629Z,58.65
2022-12-26T07:07:25.640Z,57.69
2022-12-26T07:08:25.643Z,57.04
2022-12-26T07:09:31.493Z,58.49
2022-12-26T07:10:26.606Z,57.52
2022-12-26T07:11:25.602Z,57.36
2022-12-26T07:12:25.710Z,58.33
2022-12-26T07:13:25.574Z,58.17
2022-12-26T07:14:25.575Z,58.01
2022-12-26T07:15:25.593Z,59.46
2022-12-26T07:16:25.595Z,59.62
2022-12-26T07:17:25.554Z,58.65
2022-12-26T07:18:25.589Z,58.17
2022-12-26T07:19:25.548Z,57.69
2022-12-26T07:20:25.541Z,58.01
2022-12-26T07:21:25.540Z,57.69
2022-12-26T07:22:25.552Z,59.78
2022-12-26T07:23:25.575Z,57.85
2022-12-26T07:24:25.539Z,59.14
2022-12-26T07:25:25.554Z,59.78
2022-12-26T07:26:25.539Z,60.26
2022-12-26T07:27:25.500Z,59.94
2022-12-26T07:28:25.500Z,59.94
2022-12-26T07:29:25.509Z,58.65
2022-12-26T07:30:25.494Z,58.65
2022-12-26T07:31:25.661Z,60.59
2022-12-26T07:32:25.502Z,63.16
2022-12-26T07:33:25.528Z,63.33
2022-12-26T07:34:31.238Z,63.33
2022-12-26T07:35:27.438Z,61.71
2022-12-26T07:36:25.494Z,60.75
2022-12-26T07:37:25.452Z,60.59
2022-12-26T07:38:25.461Z,62.20
2022-12-26T07:39:25.428Z,65.10
2022-12-26T07:40:25.459Z,60.91
2022-12-26T07:41:25.413Z,59.78
2022-12-26T07:42:25.405Z,59.62
2022-12-26T07:43:25.446Z,59.30
2022-12-26T07:44:25.408Z,58.01
2022-12-26T07:45:25.545Z,59.14
2022-12-26T07:46:25.486Z,59.62
2022-12-26T07:47:25.382Z,60.26
2022-12-26T07:48:25.387Z,57.85
2022-12-26T07:49:25.384Z,58.01
2022-12-26T07:50:25.358Z,58.65
2022-12-26T07:51:25.406Z,59.46
2022-12-26T07:52:25.354Z,58.65
2022-12-26T07:53:25.376Z,58.97
2022-12-26T07:54:25.365Z,58.65
2022-12-26T07:55:25.369Z,58.65
2022-12-26T07:56:25.366Z,59.46
2022-12-26T07:58:27.367Z,62.20
2022-12-26T07:59:25.292Z,58.81
2022-12-26T08:00:25.298Z,58.65
2022-12-26T08:01:25.461Z,58.97
2022-12-26T08:02:25.578Z,60.26
2022-12-26T08:03:25.353Z,57.36
2022-12-26T08:04:25.297Z,58.33
2022-12-26T08:05:25.283Z,59.94
2022-12-26T08:06:25.299Z,59.30
2022-12-26T08:07:25.300Z,61.55
2022-12-26T08:08:25.241Z,61.07
2022-12-26T08:09:25.234Z,59.46
2022-12-26T08:10:25.333Z,58.17
2022-12-26T08:11:25.261Z,58.65
2022-12-26T08:12:25.251Z,58.81
2022-12-26T08:13:25.338Z,58.33
2022-12-26T08:14:25.237Z,59.14
2022-12-26T08:15:25.246Z,60.10
2022-12-26T08:16:25.303Z,59.46
2022-12-26T08:17:25.213Z,59.94
2022-12-26T08:18:25.187Z,59.46
2022-12-26T08:19:25.203Z,59.94
2022-12-26T08:20:25.217Z,59.46
2022-12-26T08:21:25.188Z,58.97
2022-12-26T08:22:25.136Z,59.14
2022-12-26T08:23:25.146Z,58.97
2022-12-26T08:24:25.173Z,59.14
2022-12-26T08:25:25.153Z,59.46
2022-12-26T08:26:25.163Z,58.65
2022-12-26T08:27:25.107Z,62.68
2022-12-26T08:28:25.109Z,58.97
2022-12-26T08:29:25.133Z,60.26
2022-12-26T08:30:25.133Z,59.30
2022-12-26T08:32:25.106Z,60.42
2022-12-26T08:33:25.151Z,60.91
2022-12-26T08:34:25.090Z,59.46
2022-12-26T08:35:25.175Z,63.33
2022-12-26T08:36:25.068Z,64.29
2022-12-26T08:37:25.106Z,63.65
2022-12-26T08:38:29.773Z,59.78
2022-12-26T08:39:25.052Z,58.65
2022-12-26T08:40:41.965Z,66.06
2022-12-26T08:41:27.075Z,66.71
2022-12-26T08:42:25.080Z,61.71
2022-12-26T08:43:53.135Z,62.68
2022-12-26T08:44:28.186Z,61.23
2022-12-26T08:45:25.062Z,64.29
2022-12-26T08:46:25.228Z,60.91
2022-12-26T08:47:25.021Z,59.62
2022-12-26T08:48:25.000Z,59.94
2022-12-26T08:49:25.064Z,61.39
2022-12-26T08:50:25.135Z,60.59
2022-12-26T08:51:25.027Z,60.26
2022-12-26T08:52:25.083Z,61.71
2022-12-26T08:53:25.157Z,61.23
2022-12-26T08:54:25.016Z,60.91
2022-12-26T08:55:24.948Z,62.20
2022-12-26T08:56:25.009Z,64.78
2022-12-26T08:57:25.129Z,64.61
2022-12-26T08:58:31.658Z,68.64
2022-12-26T08:59:25.024Z,71.70
2022-12-26T09:00:24.980Z,72.67
2022-12-26T09:01:25.034Z,69.61
2022-12-26T09:02:25.298Z,69.93
2022-12-26T09:03:24.961Z,70.42
2022-12-26T09:04:24.916Z,72.99
2022-12-26T09:05:24.929Z,74.28
2022-12-26T09:06:24.899Z,74.93
2022-12-26T09:07:24.895Z,72.83
2022-12-26T09:08:24.978Z,71.06
2022-12-26T09:09:24.893Z,72.51
2022-12-26T09:10:25.089Z,71.87
2022-12-26T09:11:24.865Z,67.51
2022-12-26T09:12:24.889Z,67.19
2022-12-26T09:13:25.086Z,65.74
2022-12-26T09:14:25.829Z,69.13
2022-12-26T09:15:25.164Z,69.29
2022-12-26T09:16:24.893Z,66.39
2022-12-26T09:17:24.860Z,65.90
2022-12-26T09:18:25.635Z,65.90
2022-12-26T09:19:24.867Z,64.94
2022-12-26T09:20:24.843Z,67.51
2022-12-26T09:21:24.853Z,63.33
2022-12-26T09:22:24.821Z,68.80
2022-12-26T09:23:24.798Z,64.78
2022-12-26T09:24:24.867Z,68.48
2022-12-26T09:25:24.777Z,64.78
2022-12-26T09:26:26.667Z,62.68
2022-12-26T09:27:25.971Z,63.33
2022-12-26T09:28:24.803Z,62.84
2022-12-26T09:29:26.191Z,62.04
2022-12-26T09:30:26.039Z,61.07
2022-12-26T09:31:24.799Z,61.07
2022-12-26T09:32:24.936Z,60.59
2022-12-26T09:33:24.751Z,60.26
2022-12-26T09:34:24.893Z,62.68
2022-12-26T09:35:24.876Z,60.75
2022-12-26T09:36:24.751Z,67.03
2022-12-26T09:37:24.809Z,71.06
2022-12-26T09:38:24.714Z,62.36
2022-12-26T09:39:24.773Z,62.36
2022-12-26T09:40:24.770Z,62.68
2022-12-26T09:41:24.729Z,63.97
2022-12-26T09:42:24.720Z,62.20
2022-12-26T09:43:24.733Z,60.91
2022-12-26T09:44:24.737Z,62.36
2022-12-26T09:45:24.717Z,67.84
2022-12-26T09:46:24.752Z,63.16
2022-12-26T09:47:24.751Z,61.39
2022-12-26T09:48:24.696Z,60.75
2022-12-26T09:49:24.682Z,63.33
2022-12-26T09:50:24.680Z,65.90
2022-12-26T09:51:24.744Z,65.10
2022-12-26T09:52:24.702Z,67.19
2022-12-26T09:53:24.700Z,66.87
2022-12-26T09:54:24.687Z,64.78
2022-12-26T09:55:24.633Z,69.77
2022-12-26T09:57:25.689Z,63.16
2022-12-26T09:58:24.612Z,66.06
2022-12-26T09:59:24.648Z,63.16
2022-12-26T10:00:24.645Z,64.45
2022-12-26T10:01:25.339Z,66.87
2022-12-26T10:02:24.758Z,68.00
2022-12-26T10:03:24.640Z,69.13
2022-12-26T10:04:29.064Z,69.93
2022-12-26T10:05:25.574Z,73.15
2022-12-26T10:06:24.563Z,73.48
2022-12-26T10:07:24.607Z,69.77
2022-12-26T10:08:24.597Z,66.87
2022-12-26T10:09:24.548Z,67.84
2022-12-26T10:10:24.533Z,65.42
2022-12-26T10:11:24.523Z,64.78
2022-12-26T10:12:24.537Z,65.58
2022-12-26T10:13:24.531Z,64.29
2022-12-26T10:14:24.516Z,63.33
2022-12-26T10:15:24.504Z,68.32
2022-12-26T10:16:24.561Z,71.06
2022-12-26T10:17:24.573Z,69.77
2022-12-26T10:18:24.500Z,63.00
2022-12-26T10:19:30.414Z,63.16
2022-12-26T10:20:26.498Z,62.52
2022-12-26T10:21:24.484Z,67.68
2022-12-26T10:22:24.553Z,68.80
2022-12-26T10:23:24.507Z,69.61
2022-12-26T10:24:24.488Z,63.00
2022-12-26T10:25:27.541Z,71.70
2022-12-26T10:26:24.444Z,64.45
2022-12-26T10:27:24.557Z,67.03
2022-12-26T10:28:24.500Z,63.97
2022-12-26T10:29:24.562Z,64.13
2022-12-26T10:30:24.441Z,67.51
2022-12-26T10:31:24.430Z,66.87
2022-12-26T10:32:27.863Z,63.49
2022-12-26T10:33:25.499Z,62.04
2022-12-26T10:34:24.405Z,71.87
2022-12-26T10:35:24.430Z,69.93
2022-12-26T10:36:24.491Z,63.16
2022-12-26T10:37:24.433Z,69.45
2022-12-26T10:38:27.622Z,67.51
2022-12-26T10:39:24.355Z,63.16
2022-12-26T10:40:24.372Z,61.07
2022-12-26T10:41:24.412Z,70.58
2022-12-26T10:42:24.373Z,61.71
2022-12-26T10:43:24.389Z,60.10
2022-12-26T10:44:27.850Z,59.78
2022-12-26T10:45:25.376Z,60.26
2022-12-26T10:46:24.392Z,64.61
2022-12-26T10:47:24.392Z,64.94
2022-12-26T10:48:24.410Z,68.00
2022-12-26T10:49:24.371Z,63.97
2022-12-26T10:50:27.574Z,64.78
2022-12-26T10:51:24.283Z,63.49
2022-12-26T10:52:24.380Z,62.20
2022-12-26T10:53:24.315Z,68.32
2022-12-26T10:54:24.255Z,62.04
2022-12-26T10:55:28.942Z,69.77
2022-12-26T10:56:25.277Z,66.71
2022-12-26T10:57:24.271Z,68.48
2022-12-26T10:58:24.271Z,66.06
2022-12-26T10:59:24.364Z,68.00
2022-12-26T11:00:24.219Z,63.97
2022-12-26T11:01:24.354Z,66.87
2022-12-26T11:02:24.376Z,62.36
2022-12-26T11:03:24.364Z,67.68
2022-12-26T11:05:48.902Z,62.52
2022-12-26T11:06:26.218Z,62.52
2022-12-26T11:07:24.267Z,64.45
2022-12-26T11:08:24.239Z,63.33
2022-12-26T11:09:24.242Z,65.10
2022-12-26T11:10:24.187Z,62.36
2022-12-26T11:11:24.222Z,68.48
2022-12-26T11:12:24.176Z,68.00
2022-12-26T11:13:24.211Z,62.84
2022-12-26T11:14:26.243Z,62.68
2022-12-26T11:15:24.139Z,62.36
2022-12-26T11:16:24.169Z,64.29
2022-12-26T11:17:24.138Z,62.04
2022-12-26T11:18:24.140Z,64.29
2022-12-26T11:19:24.114Z,63.65
2022-12-26T11:20:24.099Z,60.26
2022-12-26T11:21:24.121Z,60.10
2022-12-26T11:22:24.119Z,65.42
2022-12-26T11:23:24.142Z,64.78
2022-12-26T11:24:24.096Z,64.78
2022-12-26T11:25:24.041Z,64.61
2022-12-26T11:26:24.044Z,64.78
2022-12-26T11:27:24.058Z,62.04
2022-12-26T11:28:56.640Z,67.35
2022-12-26T11:29:24.060Z,61.87
2022-12-26T11:30:24.067Z,61.07
2022-12-26T11:31:24.092Z,63.00
2022-12-26T11:32:24.036Z,63.16
2022-12-26T11:33:24.013Z,62.36
2022-12-26T11:34:23.983Z,60.10
2022-12-26T11:35:24.035Z,60.75
2022-12-26T11:36:24.003Z,67.51
2022-12-26T11:37:23.959Z,64.13
2022-12-26T11:38:24.006Z,62.52
2022-12-26T11:39:23.992Z,62.20
2022-12-26T11:40:23.982Z,62.68
2022-12-26T11:41:24.016Z,62.84
2022-12-26T11:42:23.930Z,66.39
2022-12-26T11:43:23.949Z,63.00
2022-12-26T11:44:23.934Z,63.49
2022-12-26T11:45:23.940Z,60.75
2022-12-26T11:46:24.002Z,66.39
2022-12-26T11:47:23.963Z,70.25
2022-12-26T11:48:23.935Z,68.80
2022-12-26T11:49:23.930Z,61.07
2022-12-26T11:50:23.881Z,61.07
2022-12-26T11:51:23.904Z,61.87
2022-12-26T11:52:23.998Z,66.39
2022-12-26T11:53:23.893Z,63.33
2022-12-26T11:54:23.893Z,65.74
2022-12-26T11:55:23.881Z,63.97
2022-12-26T11:56:23.878Z,67.84
2022-12-26T11:57:23.923Z,67.35
2022-12-26T11:58:23.861Z,64.29
2022-12-26T11:59:23.861Z,64.13
2022-12-26T12:00:24.824Z,64.45
2022-12-26T12:01:23.890Z,63.49
2022-12-26T12:02:23.931Z,67.68
2022-12-26T12:03:23.924Z,65.10
2022-12-26T12:04:23.835Z,64.13
2022-12-26T12:05:23.806Z,63.33
2022-12-26T12:06:23.830Z,60.42
2022-12-26T12:07:23.819Z,60.91
2022-12-26T12:08:23.843Z,61.07
2022-12-26T12:09:23.773Z,69.45
2022-12-26T12:10:23.796Z,61.55
2022-12-26T12:11:23.786Z,62.20
2022-12-26T12:12:23.782Z,59.62
2022-12-26T12:13:23.749Z,60.42
2022-12-26T12:14:24.777Z,62.84
2022-12-26T12:15:23.755Z,64.61
2022-12-26T12:16:23.769Z,63.49
2022-12-26T12:17:23.751Z,62.84
2022-12-26T12:18:23.718Z,68.80
2022-12-26T12:19:23.735Z,60.75
2022-12-26T12:20:23.749Z,62.04
2022-12-26T12:21:23.689Z,68.00
2022-12-26T12:22:23.682Z,60.59
2022-12-26T12:23:23.706Z,60.10
2022-12-26T12:24:23.735Z,61.07
2022-12-26T12:25:23.724Z,63.16
2022-12-26T12:26:23.655Z,62.52
2022-12-26T12:27:23.682Z,64.61
2022-12-26T12:28:23.654Z,60.42
2022-12-26T12:29:23.667Z,59.94
2022-12-26T12:30:23.666Z,61.39
2022-12-26T12:31:23.727Z,62.04
2022-12-26T12:32:23.657Z,61.71
2022-12-26T12:33:23.627Z,63.81
2022-12-26T12:34:23.668Z,63.65
2022-12-26T12:35:23.655Z,68.48
2022-12-26T12:36:23.640Z,59.14
2022-12-26T12:37:23.626Z,63.81
2022-12-26T12:38:23.607Z,59.94
2022-12-26T12:39:23.640Z,61.71
2022-12-26T12:40:23.580Z,61.39
2022-12-26T12:41:23.583Z,61.87
2022-12-26T12:42:23.642Z,63.65
2022-12-26T12:43:23.602Z,59.94
2022-12-26T12:44:23.620Z,62.20
2022-12-26T12:45:23.601Z,60.42
2022-12-26T12:46:23.579Z,63.33
2022-12-26T12:47:23.538Z,59.62
2022-12-26T12:48:23.554Z,60.42
2022-12-26T12:49:23.540Z,59.30
2022-12-26T12:50:23.542Z,62.36
2022-12-26T12:51:23.505Z,59.94
2022-12-26T12:52:23.531Z,59.62
2022-12-26T12:53:23.507Z,61.39
2022-12-26T12:54:23.520Z,63.65
2022-12-26T12:55:23.508Z,60.42
2022-12-26T12:56:23.509Z,59.94